Time;durP1;ratioP1;P1;durP2;ratioP2;P2;SDS_P1;SDS_P2;PMS_P1;PMS_P2;Temp;Humidity;BMP_temperature;BMP_pressure;BME280_temperature;BME280_humidity;BME280_pressure;Samples;Min_cycle;Max_cycle;Signal;HPM_P1;HPM_P2
2023/08/24 00:00:36;;;;;;;5.28;4.70;;;;;;;;;;5053870;28;20184;-84
2023/08/24 00:03:02;;;;;;;5.78;4.50;;;;;;;;;;5053429;28;20180;-84
2023/08/24 00:05:28;;;;;;;6.57;5.10;;;;;;;;;;5052788;28;20177;-84
2023/08/24 00:07:53;;;;;;;5.80;4.68;;;;;;;;;;5054078;28;20198;-84
2023/08/24 00:10:18;;;;;;;6.20;5.10;;;;;;;;;;5049043;28;20221;-84
2023/08/24 00:12:43;;;;;;;4.97;4.22;;;;;;;;;;5055115;28;20177;-83
2023/08/24 00:15:09;;;;;;;5.22;4.80;;;;;;;;;;5053994;28;20188;-84
2023/08/24 00:17:34;;;;;;;5.33;4.90;;;;;;;;;;5053324;28;20185;-84
2023/08/24 00:20:03;;;;;;;6.27;4.30;;;;;;;;;;5057264;28;20182;-84
2023/08/24 00:22:29;;;;;;;7.35;4.60;;;;;;;;;;5071875;28;20181;-84
2023/08/24 00:24:54;;;;;;;5.23;4.40;;;;;;;;;;5051284;28;20192;-85
2023/08/24 00:27:19;;;;;;;4.57;4.17;;;;;;;;;;5051494;28;20205;-85
2023/08/24 00:29:45;;;;;;;4.97;4.47;;;;;;;;;;5053331;28;20180;-84
2023/08/24 00:32:10;;;;;;;5.93;4.63;;;;;;;;;;5052348;28;20177;-84
2023/08/24 00:34:35;;;;;;;4.23;3.83;;;;;;;;;;5067824;28;20175;-84
2023/08/24 00:37:01;;;;;;;7.03;4.73;;;;;;;;;;5052795;28;20174;-84
2023/08/24 00:39:26;;;;;;;4.70;4.23;;;;;;;;;;5050782;28;20184;-84
2023/08/24 00:41:52;;;;;;;6.80;4.83;;;;;;;;;;5055002;28;20181;-84
2023/08/24 00:44:17;;;;;;;5.50;4.70;;;;;;;;;;5051641;28;20181;-85
2023/08/24 00:46:42;;;;;;;9.00;5.20;;;;;;;;;;5053790;28;20204;-84
2023/08/24 00:49:08;;;;;;;5.80;5.23;;;;;;;;;;5052310;28;20173;-85
2023/08/24 00:51:34;;;;;;;9.00;4.80;;;;;;;;;;5056083;28;20184;-85
2023/08/24 00:53:59;;;;;;;4.93;4.53;;;;;;;;;;5054494;28;20181;-85
2023/08/24 00:56:24;;;;;;;5.87;4.40;;;;;;;;;;5052061;28;20194;-84
2023/08/24 00:58:50;;;;;;;8.10;4.60;;;;;;;;;;5053190;28;20189;-84
2023/08/24 01:01:15;;;;;;;5.73;4.67;;;;;;;;;;5050073;28;20188;-84
2023/08/24 01:03:40;;;;;;;6.20;4.50;;;;;;;;;;5053895;28;20184;-84
2023/08/24 01:06:06;;;;;;;5.80;4.77;;;;;;;;;;5051283;28;20196;-85
2023/08/24 01:08:32;;;;;;;6.53;4.43;;;;;;;;;;5067572;28;20259;-85
2023/08/24 01:10:59;;;;;;;5.50;4.80;;;;;;;;;;5050088;28;20271;-85
2023/08/24 01:13:31;;;;;;;5.07;4.50;;;;;;;;;;5069394;28;20176;-84
2023/08/24 01:16:09;;;;;;;6.07;4.77;;;;;;;;;;5054092;28;20275;-85
2023/08/24 01:18:36;;;;;;;5.27;4.73;;;;;;;;;;5050613;28;20254;-85
2023/08/24 01:21:01;;;;;;;5.17;4.57;;;;;;;;;;5052638;28;20279;-85
2023/08/24 01:23:43;;;;;;;5.73;5.03;;;;;;;;;;5053832;28;20260;-85
2023/08/24 01:26:10;;;;;;;4.30;3.90;;;;;;;;;;5070365;28;20198;-85
2023/08/24 01:28:35;;;;;;;5.63;5.13;;;;;;;;;;5051788;28;20213;-85
2023/08/24 01:31:01;;;;;;;5.13;4.23;;;;;;;;;;5051180;28;20177;-85
2023/08/24 01:33:26;;;;;;;4.73;4.30;;;;;;;;;;5050698;28;20175;-84
2023/08/24 01:35:51;;;;;;;5.17;4.57;;;;;;;;;;5049386;28;20308;-84
2023/08/24 01:38:16;;;;;;;6.73;5.27;;;;;;;;;;5052384;28;20276;-85
2023/08/24 01:40:51;;;;;;;8.90;5.00;;;;;;;;;;5054637;28;20195;-85
2023/08/24 01:43:18;;;;;;;7.50;4.73;;;;;;;;;;5054681;28;20226;-85
2023/08/24 01:45:44;;;;;;;9.70;4.40;;;;;;;;;;5056702;28;20185;-84
2023/08/24 01:48:10;;;;;;;4.80;4.10;;;;;;;;;;5056865;28;20280;-85
2023/08/24 01:50:35;;;;;;;4.97;4.47;;;;;;;;;;5055585;28;20244;-85
2023/08/24 01:53:01;;;;;;;5.57;4.27;;;;;;;;;;5056057;28;20204;-84
2023/08/24 01:55:27;;;;;;;4.40;4.00;;;;;;;;;;5072886;28;20184;-84
2023/08/24 01:57:55;;;;;;;5.63;5.03;;;;;;;;;;5054914;28;20181;-84
2023/08/24 02:00:20;;;;;;;4.57;4.13;;;;;;;;;;5055680;28;20185;-84
2023/08/24 02:02:45;;;;;;;5.33;4.47;;;;;;;;;;5056275;28;20186;-84
2023/08/24 02:05:11;;;;;;;4.87;4.47;;;;;;;;;;5055217;28;20189;-84
2023/08/24 02:07:36;;;;;;;4.90;4.50;;;;;;;;;;5055396;28;20212;-84
2023/08/24 02:10:01;;;;;;;5.57;4.70;;;;;;;;;;5055607;28;20300;-84
2023/08/24 02:12:26;;;;;;;5.27;4.53;;;;;;;;;;5058411;28;20181;-84
2023/08/24 02:14:52;;;;;;;6.23;4.70;;;;;;;;;;5055870;28;20196;-84
2023/08/24 02:17:17;;;;;;;5.00;4.57;;;;;;;;;;5057331;28;20180;-84
2023/08/24 02:19:42;;;;;;;5.07;4.60;;;;;;;;;;5055871;28;20180;-84
2023/08/24 02:22:08;;;;;;;6.10;4.63;;;;;;;;;;5054393;28;20275;-84
2023/08/24 02:24:33;;;;;;;4.70;4.30;;;;;;;;;;5057588;28;20194;-84
2023/08/24 02:26:59;;;;;;;6.00;4.53;;;;;;;;;;5055202;28;20212;-84
2023/08/24 02:29:24;;;;;;;5.97;4.63;;;;;;;;;;5050953;28;20176;-84
2023/08/24 02:31:50;;;;;;;5.37;4.67;;;;;;;;;;5056653;28;20174;-84
2023/08/24 02:34:15;;;;;;;8.67;4.70;;;;;;;;;;5056202;28;20192;-84
2023/08/24 02:36:41;;;;;;;5.10;4.70;;;;;;;;;;5056393;28;20178;-84
2023/08/24 02:39:07;;;;;;;4.87;4.47;;;;;;;;;;5071683;28;20187;-84
2023/08/24 02:41:32;;;;;;;5.77;4.97;;;;;;;;;;5055886;28;20189;-84
2023/08/24 02:43:57;;;;;;;4.70;4.30;;;;;;;;;;5058585;28;20176;-84
2023/08/24 02:46:22;;;;;;;6.43;5.20;;;;;;;;;;5055567;28;20295;-84
2023/08/24 02:48:48;;;;;;;5.37;4.27;;;;;;;;;;5052497;28;20176;-84
2023/08/24 02:51:13;;;;;;;5.13;4.53;;;;;;;;;;5051952;28;20195;-84
2023/08/24 02:53:38;;;;;;;4.63;3.67;;;;;;;;;;5058695;28;20192;-84
2023/08/24 02:56:03;;;;;;;6.67;5.07;;;;;;;;;;5052535;28;20209;-84
2023/08/24 02:58:29;;;;;;;6.53;4.47;;;;;;;;;;5053827;28;20184;-84
2023/08/24 03:00:55;;;;;;;7.13;5.00;;;;;;;;;;5054099;28;20180;-84
2023/08/24 03:03:20;;;;;;;5.00;4.50;;;;;;;;;;5054428;28;20195;-84
2023/08/24 03:05:56;;;;;;;8.97;4.90;;;;;;;;;;5050819;28;20189;-84
2023/08/24 03:08:21;;;;;;;6.67;4.87;;;;;;;;;;5050616;28;20232;-84
2023/08/24 03:10:46;;;;;;;5.47;4.97;;;;;;;;;;5054369;28;20245;-84
2023/08/24 03:13:11;;;;;;;6.83;5.63;;;;;;;;;;5054198;28;20173;-84
2023/08/24 03:15:37;;;;;;;6.63;5.30;;;;;;;;;;5055628;28;20180;-84
2023/08/24 03:18:03;;;;;;;5.80;5.27;;;;;;;;;;5050349;28;20187;-84
2023/08/24 03:20:28;;;;;;;4.90;4.40;;;;;;;;;;5054891;28;20178;-84
2023/08/24 03:22:53;;;;;;;5.37;4.87;;;;;;;;;;5071998;28;20183;-84
2023/08/24 03:25:18;;;;;;;6.10;5.50;;;;;;;;;;5071710;28;20177;-84
2023/08/24 03:27:44;;;;;;;6.70;4.80;;;;;;;;;;5054238;28;20199;-84
2023/08/24 03:30:09;;;;;;;8.53;6.60;;;;;;;;;;5052761;28;20177;-84
2023/08/24 03:32:34;;;;;;;9.57;5.60;;;;;;;;;;5072992;28;20441;-84
2023/08/24 03:35:00;;;;;;;5.93;5.43;;;;;;;;;;5053032;28;20185;-84
2023/08/24 03:37:25;;;;;;;6.30;5.70;;;;;;;;;;5050012;28;20191;-84
2023/08/24 03:39:51;;;;;;;6.50;5.83;;;;;;;;;;5053994;28;20184;-84
2023/08/24 03:42:16;;;;;;;5.63;5.13;;;;;;;;;;5054427;28;20246;-84
2023/08/24 03:44:41;;;;;;;7.77;5.43;;;;;;;;;;5070814;28;20196;-84
2023/08/24 03:47:06;;;;;;;6.63;5.13;;;;;;;;;;5053757;28;20240;-84
2023/08/24 03:49:31;;;;;;;5.77;5.23;;;;;;;;;;5053027;28;20215;-84
2023/08/24 03:51:57;;;;;;;6.67;5.50;;;;;;;;;;5054367;28;20176;-84
2023/08/24 03:54:23;;;;;;;7.57;5.50;;;;;;;;;;5053373;28;20191;-84
2023/08/24 03:56:48;;;;;;;6.47;5.30;;;;;;;;;;5051012;28;20184;-84
2023/08/24 03:59:13;;;;;;;6.63;5.50;;;;;;;;;;5049517;28;20201;-85
2023/08/24 04:01:38;;;;;;;5.80;5.27;;;;;;;;;;5052816;28;20220;-84
2023/08/24 04:04:04;;;;;;;6.47;5.83;;;;;;;;;;5053574;28;20237;-84
2023/08/24 04:06:29;;;;;;;7.53;5.63;;;;;;;;;;5052346;28;20204;-84
2023/08/24 04:08:54;;;;;;;9.07;5.50;;;;;;;;;;5050866;28;20238;-84
2023/08/24 04:11:20;;;;;;;26.27;7.60;;;;;;;;;;5054619;28;20185;-85
2023/08/24 04:13:46;;;;;;;6.27;5.67;;;;;;;;;;5052863;28;20183;-84
2023/08/24 04:16:11;;;;;;;6.83;5.80;;;;;;;;;;5054230;28;20219;-84
2023/08/24 04:18:36;;;;;;;7.87;5.63;;;;;;;;;;5053053;28;20190;-84
2023/08/24 04:21:01;;;;;;;9.07;5.57;;;;;;;;;;5071220;28;20245;-83
2023/08/24 04:23:27;;;;;;;5.97;5.47;;;;;;;;;;5051260;28;20186;-84
2023/08/24 04:25:53;;;;;;;6.37;5.27;;;;;;;;;;5053179;28;20279;-84
2023/08/24 04:28:18;;;;;;;9.03;5.70;;;;;;;;;;5051892;28;20180;-84
2023/08/24 04:30:51;;;;;;;7.63;5.23;;;;;;;;;;5053146;28;20223;-84
2023/08/24 04:33:16;;;;;;;6.23;5.63;;;;;;;;;;5075939;28;20181;-84
2023/08/24 04:35:41;;;;;;;5.80;5.10;;;;;;;;;;5052976;28;20231;-84
2023/08/24 04:38:09;;;;;;;7.83;6.13;;;;;;;;;;5052235;28;20188;-84
2023/08/24 04:40:51;;;;;;;7.33;5.57;;;;;;;;;;5053358;28;20181;-84
2023/08/24 04:43:16;;;;;;;10.00;5.73;;;;;;;;;;5051767;28;20275;-84
2023/08/24 04:45:42;;;;;;;12.03;5.80;;;;;;;;;;5070248;28;20263;-84
2023/08/24 04:48:07;;;;;;;7.00;5.40;;;;;;;;;;5052204;28;20194;-84
2023/08/24 04:50:32;;;;;;;5.87;5.40;;;;;;;;;;5052995;28;20255;-84
2023/08/24 04:52:57;;;;;;;12.37;5.87;;;;;;;;;;5051904;28;20192;-84
2023/08/24 04:55:23;;;;;;;9.73;6.23;;;;;;;;;;5051180;28;20237;-84
2023/08/24 04:57:48;;;;;;;6.53;5.53;;;;;;;;;;5053187;28;20252;-84
2023/08/24 05:00:16;;;;;;;6.50;5.37;;;;;;;;;;5051557;28;20181;-85
2023/08/24 05:02:41;;;;;;;11.80;6.50;;;;;;;;;;5055777;28;20210;-84
2023/08/24 05:05:07;;;;;;;6.30;5.70;;;;;;;;;;5050841;28;20208;-88
2023/08/24 05:07:32;;;;;;;6.83;6.13;;;;;;;;;;5051746;28;20207;-87
2023/08/24 05:09:57;;;;;;;7.23;5.83;;;;;;;;;;5060531;28;20229;-88
2023/08/24 05:12:23;;;;;;;7.50;5.33;;;;;;;;;;5051171;28;20185;-88
2023/08/24 05:14:48;;;;;;;10.03;6.37;;;;;;;;;;5052123;28;20186;-88
2023/08/24 05:17:13;;;;;;;5.93;5.23;;;;;;;;;;5051019;28;20263;-88
2023/08/24 05:19:38;;;;;;;8.67;5.50;;;;;;;;;;5054240;28;20240;-88
2023/08/24 05:22:04;;;;;;;5.77;5.27;;;;;;;;;;5053752;28;20188;-88
2023/08/24 05:24:29;;;;;;;5.87;5.23;;;;;;;;;;5049312;28;20283;-88
2023/08/24 05:26:54;;;;;;;12.37;6.07;;;;;;;;;;5052041;28;20208;-88
2023/08/24 05:29:19;;;;;;;6.80;5.93;;;;;;;;;;5052651;28;20182;-88
2023/08/24 05:31:44;;;;;;;9.33;6.10;;;;;;;;;;5052467;28;20175;-89
2023/08/24 05:34:10;;;;;;;5.47;4.93;;;;;;;;;;5048843;28;20218;-89
2023/08/24 05:36:35;;;;;;;6.97;5.23;;;;;;;;;;5052813;28;20185;-88
2023/08/24 05:39:00;;;;;;;6.20;5.57;;;;;;;;;;5054168;28;20188;-89
2023/08/24 05:41:25;;;;;;;7.30;6.13;;;;;;;;;;5054603;28;20183;-88
2023/08/24 05:43:52;;;;;;;8.27;6.03;;;;;;;;;;5053127;28;20185;-88
2023/08/24 05:46:17;;;;;;;5.80;4.67;;;;;;;;;;5052925;28;20197;-89
2023/08/24 05:48:43;;;;;;;7.53;5.57;;;;;;;;;;5052412;28;20395;-89
2023/08/24 05:51:09;;;;;;;5.90;5.07;;;;;;;;;;5050287;28;20190;-88
2023/08/24 05:53:35;;;;;;;7.73;5.10;;;;;;;;;;5053210;28;20210;-88
2023/08/24 05:56:03;;;;;;;5.60;5.10;;;;;;;;;;5050591;28;20211;-88
2023/08/24 05:58:28;;;;;;;6.27;5.33;;;;;;;;;;5053024;28;20170;-88
2023/08/24 06:00:58;;;;;;;5.63;5.10;;;;;;;;;;5049212;28;20188;-88
2023/08/24 06:03:23;;;;;;;6.13;5.10;;;;;;;;;;5048609;28;20187;-88
2023/08/24 06:05:48;;;;;;;11.33;5.60;;;;;;;;;;5076103;28;20177;-88
2023/08/24 06:08:13;;;;;;;7.13;5.40;;;;;;;;;;5050722;28;20230;-88
2023/08/24 06:10:39;;;;;;;6.07;5.47;;;;;;;;;;5052438;28;20188;-88
2023/08/24 06:13:04;;;;;;;14.90;5.83;;;;;;;;;;5053846;28;20180;-88
2023/08/24 06:15:29;;;;;;;17.53;6.43;;;;;;;;;;5052848;28;20180;-89
2023/08/24 06:17:55;;;;;;;5.37;4.43;;;;;;;;;;5049303;28;20173;-88
2023/08/24 06:20:20;;;;;;;5.67;5.07;;;;;;;;;;5064836;28;20237;-85
2023/08/24 06:22:46;;;;;;;8.70;5.20;;;;;;;;;;5051435;28;20184;-88
2023/08/24 06:28:14;;;;;;;6.77;4.90;;;;;;;;;;5063163;28;20382;-87
2023/08/24 06:30:39;;;;;;;7.37;5.20;;;;;;;;;;5054406;28;20314;-87
2023/08/24 06:33:05;;;;;;;6.20;4.83;;;;;;;;;;5053969;28;20189;-87
2023/08/24 06:35:31;;;;;;;5.90;4.93;;;;;;;;;;5055957;28;20187;-87
2023/08/24 06:37:56;;;;;;;5.23;4.73;;;;;;;;;;5055226;28;20188;-87
2023/08/24 06:40:21;;;;;;;74.37;14.13;;;;;;;;;;5055932;28;20185;-87
2023/08/24 06:42:46;;;;;;;8.60;5.17;;;;;;;;;;5055004;28;20188;-87
2023/08/24 06:45:12;;;;;;;9.50;5.83;;;;;;;;;;5053859;28;20174;-86
2023/08/24 06:47:37;;;;;;;5.70;5.20;;;;;;;;;;5068126;28;20204;-87
2023/08/24 06:50:03;;;;;;;16.30;7.47;;;;;;;;;;5034395;28;20229;-87
2023/08/24 06:52:28;;;;;;;8.97;6.10;;;;;;;;;;5050811;28;20185;-87
2023/08/24 06:54:56;;;;;;;6.33;5.60;;;;;;;;;;5050761;28;20173;-87
2023/08/24 06:57:21;;;;;;;6.67;5.70;;;;;;;;;;5053126;28;20177;-88
2023/08/24 06:59:46;;;;;;;5.50;5.10;;;;;;;;;;5050295;28;20260;-86
2023/08/24 07:02:12;;;;;;;5.50;5.10;;;;;;;;;;5050829;28;20237;-87
2023/08/24 07:04:40;;;;;;;6.57;5.30;;;;;;;;;;5069685;28;20184;-87
2023/08/24 07:07:05;;;;;;;8.07;6.07;;;;;;;;;;5053812;28;20217;-87
2023/08/24 07:09:30;;;;;;;7.10;5.00;;;;;;;;;;5053956;28;20248;-87
2023/08/24 07:11:55;;;;;;;18.40;6.33;;;;;;;;;;5053332;28;20181;-87
2023/08/24 07:14:21;;;;;;;6.63;4.88;;;;;;;;;;5048720;28;20181;-88
2023/08/24 07:16:46;;;;;;;8.30;5.93;;;;;;;;;;5054734;28;20185;-87
2023/08/24 07:19:11;;;;;;;6.35;5.65;;;;;;;;;;5055588;28;20178;-87
2023/08/24 07:21:37;;;;;;;5.75;5.10;;;;;;;;;;5053269;28;20310;-86
2023/08/24 07:24:02;;;;;;;5.40;4.70;;;;;;;;;;5053307;28;20177;-87
2023/08/24 07:26:29;;;;;;;5.38;4.43;;;;;;;;;;5055004;28;20253;-87
2023/08/24 07:28:54;;;;;;;5.47;4.80;;;;;;;;;;5053829;28;20260;-87
2023/08/24 07:31:20;;;;;;;4.78;4.38;;;;;;;;;;5058792;28;20268;-87
2023/08/24 07:33:45;;;;;;;5.53;5.03;;;;;;;;;;5050828;28;20174;-87
2023/08/24 07:36:10;;;;;;;5.47;4.53;;;;;;;;;;5053938;28;20185;-89
2023/08/24 07:38:35;;;;;;;6.25;5.65;;;;;;;;;;5055938;28;20182;-87
2023/08/24 07:41:01;;;;;;;5.43;4.93;;;;;;;;;;5053816;28;20265;-88
2023/08/24 07:43:26;;;;;;;5.72;5.20;;;;;;;;;;5054878;28;20188;-88
2023/08/24 07:45:52;;;;;;;6.20;5.07;;;;;;;;;;5055059;28;20207;-87
2023/08/24 07:48:17;;;;;;;5.35;4.90;;;;;;;;;;5072457;28;20205;-88
2023/08/24 07:50:43;;;;;;;5.63;4.78;;;;;;;;;;5054124;28;20188;-89
2023/08/24 07:53:08;;;;;;;5.22;4.78;;;;;;;;;;5052545;28;20335;-85
2023/08/24 07:55:34;;;;;;;7.88;5.28;;;;;;;;;;5054575;28;20181;-88
2023/08/24 07:57:59;;;;;;;5.57;4.80;;;;;;;;;;5054899;28;20288;-88
2023/08/24 08:00:24;;;;;;;7.80;5.32;;;;;;;;;;5053751;28;20188;-87
2023/08/24 08:02:50;;;;;;;4.82;4.43;;;;;;;;;;5054829;28;20174;-87
2023/08/24 08:05:16;;;;;;;7.30;4.78;;;;;;;;;;5053603;28;20224;-88
2023/08/24 08:07:41;;;;;;;5.63;4.75;;;;;;;;;;5054072;28;20247;-88
2023/08/24 08:10:06;;;;;;;5.93;5.38;;;;;;;;;;5053884;28;20244;-88
2023/08/24 08:12:32;;;;;;;8.25;5.15;;;;;;;;;;5056273;28;20276;-87
2023/08/24 08:14:57;;;;;;;6.28;4.70;;;;;;;;;;5054631;28;20177;-88
2023/08/24 08:17:23;;;;;;;5.10;4.60;;;;;;;;;;5054330;28;20181;-88
2023/08/24 08:19:48;;;;;;;4.93;4.45;;;;;;;;;;5053950;28;20177;-88
2023/08/24 08:22:13;;;;;;;5.00;4.60;;;;;;;;;;5053122;28;20249;-88
2023/08/24 08:24:39;;;;;;;4.97;4.43;;;;;;;;;;5051760;28;20273;-87
2023/08/24 08:27:04;;;;;;;6.35;5.35;;;;;;;;;;5054296;28;20211;-88
2023/08/24 08:29:29;;;;;;;6.13;4.45;;;;;;;;;;5052552;28;20264;-88
2023/08/24 08:31:54;;;;;;;5.72;4.40;;;;;;;;;;5053432;28;20273;-88
2023/08/24 08:34:20;;;;;;;12.43;6.07;;;;;;;;;;5067871;28;20177;-88
2023/08/24 08:36:45;;;;;;;7.25;5.32;;;;;;;;;;5052693;28;20180;-87
2023/08/24 08:39:11;;;;;;;5.97;4.75;;;;;;;;;;5049906;28;20209;-87
2023/08/24 08:41:43;;;;;;;5.68;5.03;;;;;;;;;;5052911;28;20209;-87
2023/08/24 08:44:09;;;;;;;5.65;5.00;;;;;;;;;;5057590;28;20267;-87
2023/08/24 08:46:34;;;;;;;6.72;5.03;;;;;;;;;;5052396;28;20217;-87
2023/08/24 08:49:00;;;;;;;5.50;5.00;;;;;;;;;;5055586;28;20277;-89
2023/08/24 08:51:26;;;;;;;5.50;5.00;;;;;;;;;;5052975;28;20186;-82
2023/08/24 08:53:52;;;;;;;5.78;5.32;;;;;;;;;;5036128;28;20231;-87
2023/08/24 08:56:17;;;;;;;5.72;4.85;;;;;;;;;;5050864;28;20181;-89
2023/08/24 08:58:43;;;;;;;6.25;4.93;;;;;;;;;;5054696;28;20180;-88
2023/08/24 09:01:09;;;;;;;4.70;4.40;;;;;;;;;;5051609;28;20252;-88
2023/08/24 09:03:34;;;;;;;5.10;4.60;;;;;;;;;;5053512;28;20173;-89
2023/08/24 09:05:59;;;;;;;5.35;4.85;;;;;;;;;;5049806;28;20303;-88
2023/08/24 09:08:28;;;;;;;7.53;4.95;;;;;;;;;;5048092;28;20233;-88
2023/08/24 09:10:53;;;;;;;6.18;5.68;;;;;;;;;;5046170;28;20173;-89
2023/08/24 09:13:19;;;;;;;5.43;4.93;;;;;;;;;;5053193;28;20203;-88
2023/08/24 09:15:44;;;;;;;6.63;4.53;;;;;;;;;;5044557;28;20212;-88
2023/08/24 09:18:09;;;;;;;7.55;4.78;;;;;;;;;;5046849;28;20177;-88
2023/08/24 09:20:35;;;;;;;5.93;5.43;;;;;;;;;;5050308;28;20327;-89
2023/08/24 09:23:01;;;;;;;5.35;4.80;;;;;;;;;;5061601;28;20197;-89
2023/08/24 09:25:26;;;;;;;8.25;5.20;;;;;;;;;;5049572;28;20189;-88
2023/08/24 09:27:58;;;;;;;6.70;5.55;;;;;;;;;;5050813;28;20343;-88
2023/08/24 09:30:23;;;;;;;8.60;5.45;;;;;;;;;;5050409;28;20258;-88
2023/08/24 09:32:48;;;;;;;6.13;5.35;;;;;;;;;;5046841;28;20182;-89
2023/08/24 09:35:15;;;;;;;6.60;5.57;;;;;;;;;;5048863;28;20271;-87
2023/08/24 09:37:42;;;;;;;7.65;5.28;;;;;;;;;;5051501;28;20201;-88
2023/08/24 09:40:08;;;;;;;6.00;5.10;;;;;;;;;;5052993;28;20188;-87
2023/08/24 09:42:41;;;;;;;8.30;5.25;;;;;;;;;;5051416;28;20185;-89
2023/08/24 09:45:09;;;;;;;8.02;6.03;;;;;;;;;;5049185;28;20181;-88
2023/08/24 09:47:46;;;;;;;5.88;5.43;;;;;;;;;;5049647;28;20215;-86
2023/08/24 09:50:11;;;;;;;7.03;5.15;;;;;;;;;;5048153;28;20271;-86
2023/08/24 09:52:42;;;;;;;6.82;6.20;;;;;;;;;;5048191;28;20186;-89
2023/08/24 09:55:08;;;;;;;6.93;5.45;;;;;;;;;;5043726;28;20185;-87
2023/08/24 09:57:38;;;;;;;16.75;6.80;;;;;;;;;;5049387;28;20235;-88
2023/08/24 10:00:10;;;;;;;6.60;5.13;;;;;;;;;;5053833;28;20169;-88
2023/08/24 10:02:59;;;;;;;5.82;5.00;;;;;;;;;;5058092;28;20268;-88
2023/08/24 10:05:25;;;;;;;5.18;4.75;;;;;;;;;;5052095;28;20178;-88
2023/08/24 10:07:52;;;;;;;8.10;5.50;;;;;;;;;;5049271;28;20209;-87
2023/08/24 10:10:19;;;;;;;5.95;5.45;;;;;;;;;;5052057;28;20225;-88
2023/08/24 10:12:47;;;;;;;5.78;5.25;;;;;;;;;;5049633;28;20177;-88
2023/08/24 10:15:13;;;;;;;5.68;5.03;;;;;;;;;;5048713;28;20177;-87
2023/08/24 10:17:39;;;;;;;7.05;5.97;;;;;;;;;;5045149;28;20185;-88
2023/08/24 10:20:09;;;;;;;7.07;6.10;;;;;;;;;;5050456;28;20188;-88
2023/08/24 10:22:35;;;;;;;5.97;5.47;;;;;;;;;;5046871;28;20185;-88
2023/08/24 10:25:00;;;;;;;6.15;5.28;;;;;;;;;;5051473;28;20298;-89
2023/08/24 10:27:27;;;;;;;13.90;5.30;;;;;;;;;;5048061;28;20201;-87
2023/08/24 10:29:52;;;;;;;6.05;4.70;;;;;;;;;;5061803;28;20178;-88
2023/08/24 10:32:19;;;;;;;8.90;5.95;;;;;;;;;;5052204;28;20197;-87
2023/08/24 10:34:44;;;;;;;6.15;5.60;;;;;;;;;;5046386;28;20185;-89
2023/08/24 10:37:10;;;;;;;7.88;5.57;;;;;;;;;;5052998;28;20243;-87
2023/08/24 10:39:37;;;;;;;5.80;5.30;;;;;;;;;;5043794;28;20177;-88
2023/08/24 10:42:03;;;;;;;8.60;6.43;;;;;;;;;;5043580;28;20182;-89
2023/08/24 10:44:35;;;;;;;6.78;6.07;;;;;;;;;;5047253;28;20204;-87
2023/08/24 10:47:07;;;;;;;7.15;5.85;;;;;;;;;;5049284;28;20197;-89
2023/08/24 10:49:33;;;;;;;7.22;5.65;;;;;;;;;;5053028;28;20205;-88
2023/08/24 10:52:15;;;;;;;6.63;6.03;;;;;;;;;;5049806;28;20173;-89
2023/08/24 10:54:45;;;;;;;8.57;6.88;;;;;;;;;;5051352;28;20180;-87
2023/08/24 10:57:17;;;;;;;7.47;5.82;;;;;;;;;;5054728;28;20182;-87
2023/08/24 10:59:42;;;;;;;9.90;6.75;;;;;;;;;;5047819;28;20192;-87
2023/08/24 11:02:17;;;;;;;8.32;6.88;;;;;;;;;;5052077;28;20197;-87
2023/08/24 11:05:02;;;;;;;6.20;5.60;;;;;;;;;;5054739;28;20184;-88
2023/08/24 11:07:27;;;;;;;7.35;6.38;;;;;;;;;;5052246;28;20224;-89
2023/08/24 11:09:52;;;;;;;7.70;6.78;;;;;;;;;;5049160;28;20230;-88
2023/08/24 11:12:20;;;;;;;7.93;6.35;;;;;;;;;;5027661;28;20205;-89
2023/08/24 11:14:51;;;;;;;7.45;6.18;;;;;;;;;;5047706;28;20201;-87
2023/08/24 11:17:22;;;;;;;6.55;5.88;;;;;;;;;;5052201;28;20185;-88
2023/08/24 11:19:54;;;;;;;6.85;6.15;;;;;;;;;;5068216;28;20189;-87
2023/08/24 11:22:21;;;;;;;8.60;6.20;;;;;;;;;;5045115;28;20252;-89
2023/08/24 11:24:46;;;;;;;6.93;6.07;;;;;;;;;;5048399;28;20190;-89
2023/08/24 11:27:11;;;;;;;7.40;6.70;;;;;;;;;;5049894;28;20209;-89
2023/08/24 11:29:36;;;;;;;8.85;6.40;;;;;;;;;;5045852;28;20181;-88
2023/08/24 11:32:02;;;;;;;7.15;6.40;;;;;;;;;;5045693;28;20181;-88
2023/08/24 11:34:33;;;;;;;10.13;5.85;;;;;;;;;;5051423;28;20280;-88
2023/08/24 11:36:59;;;;;;;7.07;5.38;;;;;;;;;;5049222;28;20178;-88
2023/08/24 11:39:25;;;;;;;10.38;6.45;;;;;;;;;;5051283;28;20180;-88
2023/08/24 11:41:57;;;;;;;6.80;5.75;;;;;;;;;;5048258;28;20173;-88
2023/08/24 11:44:22;;;;;;;11.73;6.18;;;;;;;;;;5065503;28;20204;-88
2023/08/24 11:46:48;;;;;;;8.18;5.60;;;;;;;;;;5051863;28;20205;-87
2023/08/24 11:49:13;;;;;;;7.55;6.10;;;;;;;;;;5054684;28;20263;-88
2023/08/24 11:51:38;;;;;;;6.45;5.78;;;;;;;;;;5054320;28;20173;-88
2023/08/24 11:54:04;;;;;;;7.88;6.40;;;;;;;;;;5053945;28;20227;-88
2023/08/24 11:56:29;;;;;;;8.85;6.68;;;;;;;;;;5055875;28;20177;-89
2023/08/24 11:58:54;;;;;;;6.38;5.72;;;;;;;;;;5053597;28;20249;-88
2023/08/24 12:01:20;;;;;;;11.25;6.18;;;;;;;;;;5052866;28;20213;-87
2023/08/24 12:03:45;;;;;;;11.63;7.15;;;;;;;;;;5051271;28;20190;-88
2023/08/24 12:06:11;;;;;;;7.85;6.57;;;;;;;;;;5056232;28;20216;-88
2023/08/24 12:08:37;;;;;;;8.68;6.18;;;;;;;;;;5048458;28;20253;-89
2023/08/24 12:11:03;;;;;;;6.95;6.00;;;;;;;;;;5052321;28;20265;-87
2023/08/24 12:13:32;;;;;;;8.18;5.93;;;;;;;;;;5053123;28;20265;-89
2023/08/24 12:16:00;;;;;;;8.20;6.40;;;;;;;;;;5053942;28;20182;-88
2023/08/24 12:18:26;;;;;;;7.47;5.75;;;;;;;;;;5054364;28;20268;-87
2023/08/24 12:20:51;;;;;;;9.48;6.32;;;;;;;;;;5054440;28;20258;-89
2023/08/24 12:23:16;;;;;;;11.20;5.80;;;;;;;;;;5071339;28;20181;-88
2023/08/24 12:25:44;;;;;;;7.20;5.40;;;;;;;;;;5052770;28;20181;-89
2023/08/24 12:28:16;;;;;;;10.52;6.55;;;;;;;;;;5053645;28;20217;-87
2023/08/24 12:30:45;;;;;;;9.13;5.95;;;;;;;;;;5053903;28;20178;-88
2023/08/24 12:33:20;;;;;;;7.68;5.35;;;;;;;;;;5053172;28;20175;-88
2023/08/24 12:35:45;;;;;;;8.75;8.05;;;;;;;;;;5054001;28;20169;-88
2023/08/24 12:38:10;;;;;;;7.50;5.80;;;;;;;;;;5053977;28;20243;-88
2023/08/24 12:40:36;;;;;;;8.27;5.60;;;;;;;;;;5051794;28;20248;-88
2023/08/24 12:43:01;;;;;;;8.45;5.93;;;;;;;;;;5044852;28;20196;-88
2023/08/24 12:45:26;;;;;;;7.45;6.15;;;;;;;;;;5052911;28;20287;-88
2023/08/24 12:47:51;;;;;;;9.18;6.07;;;;;;;;;;5052407;28;20223;-87
2023/08/24 12:50:17;;;;;;;10.05;5.68;;;;;;;;;;5050281;28;20209;-92
2023/08/24 12:52:42;;;;;;;6.18;5.50;;;;;;;;;;5052274;28;20177;-80
2023/08/24 12:55:07;;;;;;;6.90;5.60;;;;;;;;;;5069446;28;20188;-80
2023/08/24 12:57:32;;;;;;;10.18;5.75;;;;;;;;;;5054678;28;20500;-79
2023/08/24 12:59:58;;;;;;;9.43;5.60;;;;;;;;;;5045460;28;20219;-80
2023/08/24 13:02:23;;;;;;;11.45;6.28;;;;;;;;;;5056780;28;20204;-80
2023/08/24 13:04:48;;;;;;;7.18;6.40;;;;;;;;;;5066821;28;20177;-80
2023/08/24 13:07:14;;;;;;;16.17;6.53;;;;;;;;;;5052203;28;20247;-79
2023/08/24 13:09:40;;;;;;;9.02;5.70;;;;;;;;;;5070825;28;20229;-79
2023/08/24 13:12:05;;;;;;;10.73;6.15;;;;;;;;;;5052177;28;20174;-79
2023/08/24 13:14:30;;;;;;;7.35;6.65;;;;;;;;;;5050520;28;20170;-79
2023/08/24 13:16:56;;;;;;;6.55;5.82;;;;;;;;;;5052149;28;20180;-80
2023/08/24 13:19:21;;;;;;;9.95;6.22;;;;;;;;;;5053278;28;20173;-80
2023/08/24 13:21:46;;;;;;;8.40;5.65;;;;;;;;;;5068006;28;20278;-80
2023/08/24 13:24:11;;;;;;;7.43;5.65;;;;;;;;;;5050746;28;20169;-79
2023/08/24 13:26:36;;;;;;;7.67;6.17;;;;;;;;;;5053522;28;20205;-80
2023/08/24 13:29:02;;;;;;;9.40;5.88;;;;;;;;;;5052509;28;20414;-80
2023/08/24 13:31:29;;;;;;;9.23;6.28;;;;;;;;;;5052298;28;20193;-79
2023/08/24 13:33:55;;;;;;;6.22;5.57;;;;;;;;;;5051049;28;20174;-80
2023/08/24 13:36:20;;;;;;;9.93;6.68;;;;;;;;;;5051272;28;20177;-79
2023/08/24 13:38:45;;;;;;;9.15;5.75;;;;;;;;;;5049537;28;20223;-80
2023/08/24 13:41:10;;;;;;;7.20;5.30;;;;;;;;;;5050867;28;20240;-80
2023/08/24 13:43:35;;;;;;;16.27;5.87;;;;;;;;;;5050604;28;20180;-79
2023/08/24 13:46:01;;;;;;;6.80;5.17;;;;;;;;;;5052031;28;20442;-79
2023/08/24 13:48:27;;;;;;;7.13;5.82;;;;;;;;;;5049328;28;20454;-79
2023/08/24 13:50:52;;;;;;;11.85;5.82;;;;;;;;;;5052205;28;20181;-79
2023/08/24 13:53:18;;;;;;;8.10;5.70;;;;;;;;;;5054456;28;20188;-79
2023/08/24 13:55:43;;;;;;;6.00;5.30;;;;;;;;;;5052036;28;20256;-80
2023/08/24 13:58:08;;;;;;;7.63;5.40;;;;;;;;;;5051225;28;20178;-80
2023/08/24 14:00:34;;;;;;;7.63;5.65;;;;;;;;;;5052463;28;20572;-80
2023/08/24 14:02:59;;;;;;;8.88;5.70;;;;;;;;;;5051944;28;20181;-79
2023/08/24 14:05:24;;;;;;;8.43;5.30;;;;;;;;;;5051076;28;20185;-79
2023/08/24 14:07:49;;;;;;;7.73;6.43;;;;;;;;;;5050668;28;20302;-79
2023/08/24 14:10:15;;;;;;;6.70;5.60;;;;;;;;;;5052186;28;20458;-79
2023/08/24 14:12:40;;;;;;;9.15;6.20;;;;;;;;;;5051587;28;20174;-80
2023/08/24 14:15:06;;;;;;;10.93;6.10;;;;;;;;;;5053844;28;20193;-80
2023/08/24 14:17:31;;;;;;;11.82;6.00;;;;;;;;;;5051055;28;20418;-80
2023/08/24 14:19:56;;;;;;;7.70;6.45;;;;;;;;;;5050683;28;20258;-80
2023/08/24 14:22:22;;;;;;;8.33;6.57;;;;;;;;;;5051161;28;20193;-80
2023/08/24 14:24:47;;;;;;;8.63;6.63;;;;;;;;;;5049065;28;20434;-80
2023/08/24 14:27:12;;;;;;;11.47;7.47;;;;;;;;;;5067923;28;20473;-80
2023/08/24 14:29:37;;;;;;;11.47;7.83;;;;;;;;;;5051214;28;20426;-79
2023/08/24 14:32:02;;;;;;;17.50;9.80;;;;;;;;;;5067432;28;20408;-78
2023/08/24 14:34:28;;;;;;;11.30;7.72;;;;;;;;;;5051280;28;20181;-78
2023/08/24 14:36:53;;;;;;;9.70;8.70;;;;;;;;;;5048564;28;20182;-80